Red House, Nevada
Current Conditions -  °F | °C
As of 6:56 PM on Friday 24 Oct 2014 (Local Time) from KWMC Reporting Station
Clear Clear  
Wind Chill: 59°   Ceiling: Unl
Heat Index: 59°   Visibility: 10mi
Dew Point: 20°   Wind: 5mph
Humidity: 22%   Direction: 70°ENE
Pressure: 29.95"   Gusts: NA
Location:  41.013°N, 117.293°W
Report Text: KWMC 250156Z AUTO 07004KT 10SM CLR 15/M07 A2995 RMK AO2 SLP132 T01501067
Loading
Personal Weather Stations






























Interactive Weather Map
Tropical Storm Tracking
New forecast layout! Learn more

10-Day Weather Forecast

Advertisements
Track Severe Weather on mobile